CCA4012 ZYHB-ZUCK
Flight info
| Callsign | CCA4012 |
|---|---|
| Flight time | 3h 43m |
| Altitude | 32100 |
| Route | LEGAG W204 RUSBO G212 TGO B334 KAKAT W28 VERMI H13 HET W84 IBARO W47 IDSOT/K0840S1040 W47 LOVRA W276 AVDIG W666 VINEX |
| Aircraft | A21N/M-SDE3FGHIRWYZ/EB1 |
Departure
| Time | 2026-04-25 06:55 |
|---|---|
| Airport | Harbin Taiping International Airport (ZYHB) |
Arrival
| Time | 2026-04-25 10:38 |
|---|---|
| Airport | Chongqing Jiangbei International Airport (ZUCK) |
| Time | Latitude | Longitude | Altitude | Speed | Heading |
|---|---|---|---|---|---|
| 2026-04-25 06:34 | 45.61782 | 126.23704 | 510 ft | 0 kts | 40° |
| 2026-04-25 06:40 | 45.61780 | 126.23702 | 510 ft | 1 kts | 40° |
| 2026-04-25 06:40 | 45.61769 | 126.23689 | 510 ft | 2 kts | 40° |
| 2026-04-25 06:40 | 45.61758 | 126.23675 | 510 ft | 2 kts | 40° |
| 2026-04-25 06:41 | 45.61747 | 126.23659 | 510 ft | 2 kts | 69° |
| 2026-04-25 06:41 | 45.61745 | 126.23637 | 510 ft | 2 kts | 97° |
| 2026-04-25 06:41 | 45.61750 | 126.23619 | 510 ft | 0 kts | 126° |
| 2026-04-25 06:41 | 45.61753 | 126.23612 | 510 ft | 1 kts | 131° |
| 2026-04-25 06:42 | 45.61755 | 126.23610 | 510 ft | 0 kts | 130° |
| 2026-04-25 06:46 | 45.61748 | 126.23622 | 510 ft | 2 kts | 129° |
| 2026-04-25 06:46 | 45.61728 | 126.23656 | 510 ft | 6 kts | 129° |
| 2026-04-25 06:47 | 45.61692 | 126.23720 | 510 ft | 9 kts | 126° |
| 2026-04-25 06:47 | 45.61672 | 126.23820 | 510 ft | 11 kts | 107° |
| 2026-04-25 06:47 | 45.61609 | 126.23840 | 510 ft | 11 kts | 208° |
| 2026-04-25 06:47 | 45.61547 | 126.23774 | 510 ft | 11 kts | 219° |
| 2026-04-25 06:48 | 45.61486 | 126.23701 | 510 ft | 11 kts | 219° |
| 2026-04-25 06:48 | 45.61421 | 126.23626 | 510 ft | 12 kts | 219° |
| 2026-04-25 06:48 | 45.61350 | 126.23543 | 510 ft | 13 kts | 219° |
| 2026-04-25 06:48 | 45.61274 | 126.23454 | 510 ft | 14 kts | 219° |
| 2026-04-25 06:49 | 45.61195 | 126.23362 | 510 ft | 14 kts | 219° |
| 2026-04-25 06:49 | 45.61116 | 126.23270 | 510 ft | 14 kts | 219° |
| 2026-04-25 06:49 | 45.61035 | 126.23174 | 510 ft | 15 kts | 219° |
| 2026-04-25 06:49 | 45.60954 | 126.23079 | 510 ft | 15 kts | 219° |
| 2026-04-25 06:50 | 45.60872 | 126.22984 | 510 ft | 15 kts | 219° |
| 2026-04-25 06:50 | 45.60791 | 126.22888 | 510 ft | 15 kts | 219° |
| 2026-04-25 06:50 | 45.60714 | 126.22835 | 510 ft | 11 kts | 154° |
| 2026-04-25 06:50 | 45.60689 | 126.22872 | 510 ft | 1 kts | 98° |
| 2026-04-25 06:51 | 45.60706 | 126.22869 | 510 ft | 6 kts | 325° |
| 2026-04-25 06:51 | 45.60769 | 126.22856 | 510 ft | 12 kts | 36° |
| 2026-04-25 06:51 | 45.60847 | 126.22955 | 510 ft | 16 kts | 39° |
| 2026-04-25 06:51 | 45.60940 | 126.23064 | 510 ft | 18 kts | 39° |
| 2026-04-25 06:52 | 45.61045 | 126.23187 | 510 ft | 20 kts | 39° |
| 2026-04-25 06:52 | 45.61160 | 126.23322 | 510 ft | 20 kts | 39° |
| 2026-04-25 06:52 | 45.61260 | 126.23440 | 510 ft | 12 kts | 39° |
| 2026-04-25 06:52 | 45.61261 | 126.23543 | 510 ft | 11 kts | 121° |
| 2026-04-25 06:53 | 45.61254 | 126.23658 | 510 ft | 11 kts | 84° |
| 2026-04-25 06:53 | 45.61280 | 126.23767 | 510 ft | 9 kts | 55° |
| 2026-04-25 06:53 | 45.61299 | 126.23795 | 510 ft | 0 kts | 39° |
| 2026-04-25 06:54 | 45.61417 | 126.23934 | 510 ft | 58 kts | 39° |
| 2026-04-25 06:54 | 45.61793 | 126.24374 | 510 ft | 114 kts | 39° |
| 2026-04-25 06:54 | 45.62252 | 126.24913 | 513 ft | 150 kts | 37° |
| 2026-04-25 06:55 | 45.64483 | 126.27335 | 2017 ft | 145 kts | 11° |
| 2026-04-25 06:55 | 45.65425 | 126.27000 | 2368 ft | 146 kts | 328° |
| 2026-04-25 06:55 | 45.66342 | 126.26263 | 2639 ft | 153 kts | 329° |
| 2026-04-25 06:55 | 45.67305 | 126.25506 | 2889 ft | 163 kts | 332° |
| 2026-04-25 06:56 | 45.68361 | 126.24735 | 3137 ft | 174 kts | 333° |
| 2026-04-25 06:56 | 45.69492 | 126.23927 | 3388 ft | 186 kts | 333° |
| 2026-04-25 06:56 | 45.70702 | 126.23068 | 3593 ft | 201 kts | 333° |
| 2026-04-25 06:56 | 45.71955 | 126.22179 | 3816 ft | 217 kts | 332° |
| 2026-04-25 06:57 | 45.73362 | 126.21179 | 4081 ft | 234 kts | 332° |
| 2026-04-25 06:57 | 45.74730 | 126.19935 | 4643 ft | 235 kts | 312° |
| 2026-04-25 06:57 | 45.75581 | 126.17958 | 5208 ft | 238 kts | 290° |
| 2026-04-25 06:57 | 45.76114 | 126.15642 | 5554 ft | 251 kts | 288° |
| 2026-04-25 06:58 | 45.76642 | 126.13274 | 6159 ft | 253 kts | 288° |
| 2026-04-25 06:58 | 45.77174 | 126.10926 | 6887 ft | 249 kts | 287° |
| 2026-04-25 06:58 | 45.77712 | 126.08577 | 7519 ft | 249 kts | 287° |
| 2026-04-25 06:58 | 45.78258 | 126.06210 | 8117 ft | 250 kts | 287° |
| 2026-04-25 06:59 | 45.78702 | 126.03863 | 8761 ft | 248 kts | 277° |
| 2026-04-25 06:59 | 45.78747 | 126.01395 | 9412 ft | 247 kts | 265° |
| 2026-04-25 06:59 | 45.78574 | 125.99791 | 9828 ft | 247 kts | 261° |
| 2026-04-25 06:59 | 45.78153 | 125.96593 | 10518 ft | 251 kts | 261° |
| 2026-04-25 07:00 | 45.77814 | 125.94068 | 10765 ft | 263 kts | 261° |
| 2026-04-25 07:00 | 45.77470 | 125.91425 | 11020 ft | 276 kts | 261° |
| 2026-04-25 07:00 | 45.77104 | 125.88666 | 11278 ft | 288 kts | 261° |
| 2026-04-25 07:00 | 45.76729 | 125.85819 | 11482 ft | 299 kts | 260° |
| 2026-04-25 07:01 | 45.76330 | 125.82838 | 11692 ft | 308 kts | 261° |
| 2026-04-25 07:01 | 45.75924 | 125.79816 | 12181 ft | 309 kts | 260° |
| 2026-04-25 07:01 | 45.75521 | 125.76820 | 12718 ft | 309 kts | 260° |
| 2026-04-25 07:01 | 45.75114 | 125.73790 | 13151 ft | 309 kts | 260° |
| 2026-04-25 07:02 | 45.74704 | 125.70763 | 13495 ft | 313 kts | 260° |
| 2026-04-25 07:02 | 45.74291 | 125.67726 | 13881 ft | 315 kts | 260° |
| 2026-04-25 07:02 | 45.73872 | 125.64648 | 14313 ft | 315 kts | 260° |
| 2026-04-25 07:02 | 45.73443 | 125.61568 | 14670 ft | 318 kts | 258° |
| 2026-04-25 07:03 | 45.72556 | 125.58643 | 14988 ft | 328 kts | 242° |
| 2026-04-25 07:03 | 45.71013 | 125.56168 | 15413 ft | 340 kts | 226° |
| 2026-04-25 07:03 | 45.68946 | 125.54411 | 15799 ft | 356 kts | 210° |
| 2026-04-25 07:03 | 45.66587 | 125.53311 | 16244 ft | 361 kts | 206° |
| 2026-04-25 07:04 | 45.64158 | 125.52213 | 16618 ft | 365 kts | 206° |
| 2026-04-25 07:04 | 45.61745 | 125.51122 | 16961 ft | 369 kts | 207° |
| 2026-04-25 07:04 | 45.59289 | 125.50024 | 17351 ft | 372 kts | 207° |
| 2026-04-25 07:04 | 45.56795 | 125.48907 | 17710 ft | 374 kts | 206° |
| 2026-04-25 07:05 | 45.54323 | 125.47808 | 18073 ft | 376 kts | 206° |
| 2026-04-25 07:05 | 45.51820 | 125.46699 | 18417 ft | 379 kts | 207° |
| 2026-04-25 07:05 | 45.49279 | 125.45575 | 18741 ft | 382 kts | 206° |
| 2026-04-25 07:05 | 45.46749 | 125.44456 | 19087 ft | 384 kts | 206° |
| 2026-04-25 07:06 | 45.44195 | 125.43328 | 19439 ft | 385 kts | 206° |
| 2026-04-25 07:06 | 45.41628 | 125.42196 | 19777 ft | 387 kts | 206° |
| 2026-04-25 07:06 | 45.39075 | 125.41074 | 20101 ft | 389 kts | 205° |
| 2026-04-25 07:06 | 45.36469 | 125.39930 | 20429 ft | 390 kts | 206° |
| 2026-04-25 07:07 | 45.33906 | 125.38803 | 20751 ft | 392 kts | 206° |
| 2026-04-25 07:07 | 45.31271 | 125.37648 | 21055 ft | 394 kts | 206° |
| 2026-04-25 07:07 | 45.28659 | 125.36502 | 21305 ft | 395 kts | 206° |
| 2026-04-25 07:07 | 45.26024 | 125.35343 | 21528 ft | 398 kts | 206° |
| 2026-04-25 07:08 | 45.23370 | 125.34177 | 21809 ft | 400 kts | 205° |
| 2026-04-25 07:08 | 45.20700 | 125.33006 | 22112 ft | 402 kts | 205° |
| 2026-04-25 07:08 | 45.17997 | 125.31826 | 22396 ft | 404 kts | 205° |
| 2026-04-25 07:08 | 45.15335 | 125.30666 | 22658 ft | 406 kts | 205° |
| 2026-04-25 07:09 | 45.12634 | 125.29490 | 22922 ft | 408 kts | 205° |
| 2026-04-25 07:09 | 45.09906 | 125.28304 | 23165 ft | 408 kts | 204° |
| 2026-04-25 07:09 | 45.07199 | 125.27116 | 23390 ft | 410 kts | 206° |
| 2026-04-25 07:09 | 45.04635 | 125.25426 | 23614 ft | 400 kts | 218° |
| 2026-04-25 07:10 | 45.02475 | 125.23061 | 23904 ft | 392 kts | 229° |
| 2026-04-25 07:10 | 45.00731 | 125.20167 | 24156 ft | 387 kts | 238° |
| 2026-04-25 07:10 | 44.99166 | 125.17039 | 24417 ft | 388 kts | 239° |
| 2026-04-25 07:10 | 44.97615 | 125.13911 | 24649 ft | 390 kts | 239° |
| 2026-04-25 07:11 | 44.96053 | 125.10755 | 24836 ft | 392 kts | 239° |
| 2026-04-25 07:11 | 44.94495 | 125.07615 | 25063 ft | 394 kts | 239° |
| 2026-04-25 07:11 | 44.92921 | 125.04455 | 25318 ft | 395 kts | 239° |
| 2026-04-25 07:11 | 44.91330 | 125.01268 | 25555 ft | 396 kts | 239° |
| 2026-04-25 07:12 | 44.89743 | 124.98091 | 25762 ft | 397 kts | 239° |
| 2026-04-25 07:12 | 44.86544 | 124.91699 | 26146 ft | 400 kts | 239° |
| 2026-04-25 07:12 | 44.84930 | 124.88483 | 26332 ft | 402 kts | 239° |
| 2026-04-25 07:13 | 44.83327 | 124.85289 | 26516 ft | 403 kts | 239° |
| 2026-04-25 07:13 | 44.81716 | 124.82085 | 26743 ft | 403 kts | 239° |
| 2026-04-25 07:13 | 44.80079 | 124.78834 | 26999 ft | 402 kts | 239° |
| 2026-04-25 07:13 | 44.78461 | 124.75629 | 27258 ft | 401 kts | 239° |
| 2026-04-25 07:14 | 44.76842 | 124.72424 | 27493 ft | 401 kts | 239° |
| 2026-04-25 07:14 | 44.75225 | 124.69226 | 27737 ft | 401 kts | 239° |
| 2026-04-25 07:14 | 44.73619 | 124.66048 | 27999 ft | 400 kts | 239° |
| 2026-04-25 07:14 | 44.72004 | 124.62862 | 28265 ft | 399 kts | 239° |
| 2026-04-25 07:15 | 44.70403 | 124.59705 | 28522 ft | 399 kts | 239° |
| 2026-04-25 07:15 | 44.68774 | 124.56498 | 28769 ft | 398 kts | 239° |
| 2026-04-25 07:15 | 44.67178 | 124.53357 | 28984 ft | 399 kts | 239° |
| 2026-04-25 07:15 | 44.65562 | 124.50179 | 29219 ft | 398 kts | 239° |
| 2026-04-25 07:16 | 44.63959 | 124.47033 | 29466 ft | 398 kts | 239° |
| 2026-04-25 07:16 | 44.62358 | 124.43893 | 29724 ft | 397 kts | 239° |
| 2026-04-25 07:16 | 44.60848 | 124.40701 | 29952 ft | 394 kts | 244° |
| 2026-04-25 07:16 | 44.59569 | 124.37306 | 30170 ft | 391 kts | 249° |
| 2026-04-25 07:17 | 44.58542 | 124.33789 | 30371 ft | 390 kts | 253° |
| 2026-04-25 07:17 | 44.57758 | 124.30132 | 30548 ft | 389 kts | 258° |
| 2026-04-25 07:17 | 44.57235 | 124.26402 | 30722 ft | 389 kts | 263° |
| 2026-04-25 07:17 | 44.56913 | 124.22646 | 30923 ft | 389 kts | 263° |
| 2026-04-25 07:18 | 44.56393 | 124.18951 | 31112 ft | 391 kts | 258° |
| 2026-04-25 07:18 | 44.55642 | 124.15280 | 31288 ft | 393 kts | 254° |
| 2026-04-25 07:18 | 44.54686 | 124.11691 | 31481 ft | 395 kts | 250° |
| 2026-04-25 07:18 | 44.53528 | 124.08198 | 31661 ft | 398 kts | 246° |
| 2026-04-25 07:19 | 44.52173 | 124.04819 | 31836 ft | 400 kts | 243° |
| 2026-04-25 07:19 | 44.50611 | 124.01553 | 31959 ft | 403 kts | 239° |
| 2026-04-25 07:19 | 44.47336 | 123.95200 | 31960 ft | 404 kts | 239° |
| 2026-04-25 07:20 | 44.44043 | 123.88844 | 31961 ft | 405 kts | 239° |
| 2026-04-25 07:20 | 44.40751 | 123.82439 | 31956 ft | 405 kts | 239° |
| 2026-04-25 07:21 | 44.37589 | 123.76299 | 31952 ft | 405 kts | 239° |
| 2026-04-25 07:21 | 44.34310 | 123.69953 | 31954 ft | 406 kts | 239° |
| 2026-04-25 07:22 | 44.31008 | 123.63577 | 31947 ft | 405 kts | 239° |
| 2026-04-25 07:22 | 44.27950 | 123.57683 | 32012 ft | 406 kts | 239° |
| 2026-04-25 07:23 | 44.26297 | 123.54502 | 32303 ft | 406 kts | 239° |
| 2026-04-25 07:23 | 44.24639 | 123.51318 | 32627 ft | 405 kts | 239° |
| 2026-04-25 07:23 | 44.23004 | 123.48186 | 32800 ft | 403 kts | 239° |
| 2026-04-25 07:23 | 44.21350 | 123.45016 | 31931 ft | 397 kts | 239° |
| 2026-04-25 07:24 | 44.19750 | 123.41952 | 31556 ft | 396 kts | 239° |
| 2026-04-25 07:24 | 44.18131 | 123.38858 | 31373 ft | 390 kts | 239° |
| 2026-04-25 07:24 | 44.15006 | 123.32886 | 31661 ft | 378 kts | 239° |
| 2026-04-25 07:25 | 44.13444 | 123.29900 | 31827 ft | 379 kts | 239° |
| 2026-04-25 07:25 | 44.11914 | 123.26978 | 31906 ft | 381 kts | 239° |
| 2026-04-25 07:25 | 44.08733 | 123.20914 | 32002 ft | 392 kts | 239° |
| 2026-04-25 07:26 | 44.05464 | 123.14700 | 32040 ft | 404 kts | 238° |
| 2026-04-25 07:26 | 44.02134 | 123.08400 | 31977 ft | 405 kts | 238° |
| 2026-04-25 07:27 | 43.98803 | 123.02108 | 31936 ft | 406 kts | 238° |
| 2026-04-25 07:27 | 43.95462 | 122.95804 | 31616 ft | 406 kts | 238° |
| 2026-04-25 07:28 | 43.92176 | 122.89534 | 31885 ft | 404 kts | 239° |
| 2026-04-25 07:28 | 43.90545 | 122.86338 | 32246 ft | 409 kts | 239° |
| 2026-04-25 07:28 | 43.88897 | 122.83107 | 32045 ft | 409 kts | 239° |
| 2026-04-25 07:29 | 43.85609 | 122.76688 | 31956 ft | 409 kts | 239° |
| 2026-04-25 07:29 | 43.82309 | 122.70275 | 31946 ft | 409 kts | 239° |
| 2026-04-25 07:30 | 43.79009 | 122.63878 | 31937 ft | 410 kts | 239° |
| 2026-04-25 07:30 | 43.75672 | 122.57426 | 31944 ft | 412 kts | 239° |
| 2026-04-25 07:31 | 43.74012 | 122.54221 | 32094 ft | 412 kts | 239° |
| 2026-04-25 07:31 | 43.72366 | 122.51046 | 32354 ft | 410 kts | 239° |
| 2026-04-25 07:31 | 43.70706 | 122.47852 | 32602 ft | 409 kts | 239° |
| 2026-04-25 07:31 | 43.69043 | 122.44653 | 32803 ft | 409 kts | 239° |
| 2026-04-25 07:32 | 43.67380 | 122.41455 | 33021 ft | 408 kts | 239° |
| 2026-04-25 07:32 | 43.65752 | 122.38326 | 33245 ft | 406 kts | 239° |
| 2026-04-25 07:32 | 43.64099 | 122.35156 | 33446 ft | 406 kts | 239° |
| 2026-04-25 07:32 | 43.62439 | 122.31977 | 33601 ft | 406 kts | 238° |
| 2026-04-25 07:33 | 43.60790 | 122.28820 | 33767 ft | 407 kts | 238° |
| 2026-04-25 07:33 | 43.59131 | 122.25645 | 33917 ft | 406 kts | 239° |
| 2026-04-25 07:33 | 43.56098 | 122.19166 | 33918 ft | 402 kts | 244° |
| 2026-04-25 07:34 | 43.53541 | 122.12326 | 33921 ft | 400 kts | 248° |
| 2026-04-25 07:34 | 43.51190 | 122.05390 | 33919 ft | 401 kts | 248° |
| 2026-04-25 07:35 | 43.48837 | 121.98467 | 33917 ft | 399 kts | 248° |
| 2026-04-25 07:35 | 43.46491 | 121.91571 | 33910 ft | 400 kts | 248° |
| 2026-04-25 07:36 | 43.44134 | 121.84654 | 33913 ft | 400 kts | 248° |
| 2026-04-25 07:36 | 43.41785 | 121.77778 | 33911 ft | 401 kts | 248° |
| 2026-04-25 07:37 | 43.39408 | 121.70828 | 33911 ft | 401 kts | 249° |
| 2026-04-25 07:37 | 43.37033 | 121.63908 | 33912 ft | 403 kts | 248° |
| 2026-04-25 07:38 | 43.34639 | 121.56955 | 33910 ft | 403 kts | 249° |
| 2026-04-25 07:38 | 43.32247 | 121.50025 | 33906 ft | 404 kts | 249° |
| 2026-04-25 07:39 | 43.29848 | 121.43089 | 33912 ft | 403 kts | 249° |
| 2026-04-25 07:39 | 43.27439 | 121.36140 | 33904 ft | 404 kts | 249° |
| 2026-04-25 07:40 | 43.25011 | 121.29163 | 33906 ft | 404 kts | 248° |
| 2026-04-25 07:40 | 43.22586 | 121.22212 | 33887 ft | 406 kts | 248° |
| 2026-04-25 07:41 | 43.20170 | 121.15304 | 33898 ft | 405 kts | 248° |
| 2026-04-25 07:41 | 43.17733 | 121.08351 | 33899 ft | 406 kts | 248° |
| 2026-04-25 07:42 | 43.15285 | 121.01381 | 33888 ft | 407 kts | 248° |
| 2026-04-25 07:42 | 43.12832 | 120.94410 | 33898 ft | 406 kts | 248° |
| 2026-04-25 07:43 | 43.10381 | 120.87473 | 33895 ft | 406 kts | 248° |
| 2026-04-25 07:43 | 43.07919 | 120.80517 | 33886 ft | 407 kts | 248° |
| 2026-04-25 07:44 | 43.05444 | 120.73543 | 33888 ft | 407 kts | 248° |
| 2026-04-25 07:44 | 43.02978 | 120.66613 | 33883 ft | 408 kts | 248° |
| 2026-04-25 07:45 | 43.00491 | 120.59640 | 33879 ft | 408 kts | 248° |
| 2026-04-25 07:45 | 42.98016 | 120.52724 | 33880 ft | 407 kts | 248° |
| 2026-04-25 07:46 | 42.95572 | 120.45810 | 33877 ft | 406 kts | 248° |
| 2026-04-25 07:46 | 42.93206 | 120.38842 | 33880 ft | 406 kts | 249° |
| 2026-04-25 07:47 | 42.90812 | 120.31822 | 33877 ft | 406 kts | 248° |
| 2026-04-25 07:47 | 42.88435 | 120.24874 | 33878 ft | 407 kts | 248° |
| 2026-04-25 07:48 | 42.86029 | 120.17867 | 33876 ft | 406 kts | 248° |
| 2026-04-25 07:48 | 42.83636 | 120.10921 | 33882 ft | 406 kts | 248° |
| 2026-04-25 07:49 | 42.81236 | 120.03972 | 33888 ft | 407 kts | 248° |
| 2026-04-25 07:49 | 42.78824 | 119.97008 | 33897 ft | 407 kts | 248° |
| 2026-04-25 07:50 | 42.76423 | 119.90091 | 33905 ft | 407 kts | 248° |
| 2026-04-25 07:50 | 42.73999 | 119.83135 | 33907 ft | 407 kts | 248° |
| 2026-04-25 07:51 | 42.71583 | 119.76202 | 33908 ft | 408 kts | 248° |
| 2026-04-25 07:51 | 42.69150 | 119.69244 | 33907 ft | 408 kts | 248° |
| 2026-04-25 07:52 | 42.66724 | 119.62324 | 33906 ft | 407 kts | 248° |
| 2026-04-25 07:52 | 42.64288 | 119.55400 | 33908 ft | 407 kts | 248° |
| 2026-04-25 07:53 | 42.61822 | 119.48404 | 33908 ft | 407 kts | 248° |
| 2026-04-25 07:53 | 42.59365 | 119.41454 | 33910 ft | 407 kts | 248° |
| 2026-04-25 07:54 | 42.56899 | 119.34490 | 33909 ft | 406 kts | 248° |
| 2026-04-25 07:54 | 42.54460 | 119.27623 | 33912 ft | 407 kts | 247° |
| 2026-04-25 07:55 | 42.52182 | 119.21230 | 33916 ft | 408 kts | 248° |
| 2026-04-25 07:55 | 42.49627 | 119.14078 | 33923 ft | 407 kts | 248° |
| 2026-04-25 07:56 | 42.47168 | 119.07200 | 33928 ft | 407 kts | 248° |
| 2026-04-25 07:56 | 42.44697 | 119.00311 | 33932 ft | 407 kts | 248° |
| 2026-04-25 07:57 | 42.42296 | 118.93416 | 33934 ft | 406 kts | 248° |
| 2026-04-25 07:57 | 42.39892 | 118.86504 | 33934 ft | 407 kts | 248° |
| 2026-04-25 07:58 | 42.37472 | 118.79588 | 33935 ft | 407 kts | 248° |
| 2026-04-25 07:58 | 42.35042 | 118.72658 | 33936 ft | 410 kts | 248° |
| 2026-04-25 07:59 | 42.32597 | 118.65711 | 33940 ft | 409 kts | 248° |
| 2026-04-25 07:59 | 42.30160 | 118.58804 | 33944 ft | 409 kts | 248° |
| 2026-04-25 08:00 | 42.27734 | 118.51934 | 33945 ft | 410 kts | 248° |
| 2026-04-25 08:00 | 42.25308 | 118.45094 | 33944 ft | 410 kts | 248° |
| 2026-04-25 08:01 | 42.22834 | 118.38125 | 33949 ft | 410 kts | 249° |
| 2026-04-25 08:01 | 42.21114 | 118.30838 | 33956 ft | 405 kts | 262° |
| 2026-04-25 08:02 | 42.20809 | 118.23357 | 33958 ft | 405 kts | 275° |
| 2026-04-25 08:02 | 42.21894 | 118.15967 | 33968 ft | 405 kts | 288° |
| 2026-04-25 08:03 | 42.24128 | 118.08988 | 33989 ft | 405 kts | 294° |
| 2026-04-25 08:03 | 42.26522 | 118.02135 | 33995 ft | 405 kts | 294° |
| 2026-04-25 08:04 | 42.28934 | 117.95230 | 34002 ft | 406 kts | 294° |
| 2026-04-25 08:04 | 42.31320 | 117.88364 | 34009 ft | 406 kts | 294° |
| 2026-04-25 08:05 | 42.33703 | 117.81448 | 34003 ft | 404 kts | 292° |
| 2026-04-25 08:05 | 42.35536 | 117.74297 | 34005 ft | 404 kts | 284° |
| 2026-04-25 08:06 | 42.36598 | 117.66827 | 34005 ft | 404 kts | 277° |
| 2026-04-25 08:06 | 42.36856 | 117.59232 | 34007 ft | 404 kts | 270° |
| 2026-04-25 08:07 | 42.36545 | 117.51649 | 34000 ft | 404 kts | 268° |
| 2026-04-25 08:07 | 42.36191 | 117.44100 | 33998 ft | 403 kts | 268° |
| 2026-04-25 08:08 | 42.35827 | 117.36524 | 33995 ft | 403 kts | 269° |
| 2026-04-25 08:08 | 42.35459 | 117.28972 | 34002 ft | 402 kts | 268° |
| 2026-04-25 08:09 | 42.35086 | 117.21457 | 34010 ft | 402 kts | 268° |
| 2026-04-25 08:09 | 42.34705 | 117.13864 | 34004 ft | 402 kts | 268° |
| 2026-04-25 08:10 | 42.34323 | 117.06354 | 34005 ft | 402 kts | 268° |
| 2026-04-25 08:10 | 42.33937 | 116.98812 | 34007 ft | 401 kts | 268° |
| 2026-04-25 08:11 | 42.33545 | 116.91298 | 33995 ft | 401 kts | 268° |
| 2026-04-25 08:11 | 42.33146 | 116.83765 | 33994 ft | 401 kts | 268° |
| 2026-04-25 08:12 | 42.32740 | 116.76235 | 33995 ft | 402 kts | 268° |
| 2026-04-25 08:12 | 42.32332 | 116.68720 | 33995 ft | 401 kts | 268° |
| 2026-04-25 08:13 | 42.31913 | 116.61125 | 33988 ft | 401 kts | 268° |
| 2026-04-25 08:14 | 42.31283 | 116.49860 | 33991 ft | 400 kts | 268° |
| 2026-04-25 08:14 | 42.30856 | 116.42392 | 33985 ft | 400 kts | 268° |
| 2026-04-25 08:15 | 42.30423 | 116.34857 | 33997 ft | 400 kts | 268° |
| 2026-04-25 08:15 | 42.29987 | 116.27383 | 34004 ft | 399 kts | 268° |
| 2026-04-25 08:16 | 42.29542 | 116.19818 | 34003 ft | 400 kts | 268° |
| 2026-04-25 08:16 | 42.29098 | 116.12341 | 34006 ft | 400 kts | 268° |
| 2026-04-25 08:17 | 42.28643 | 116.04774 | 34019 ft | 401 kts | 268° |
| 2026-04-25 08:17 | 42.28183 | 115.97230 | 34007 ft | 400 kts | 268° |
| 2026-04-25 08:18 | 42.27724 | 115.89741 | 34012 ft | 401 kts | 268° |
| 2026-04-25 08:18 | 42.27256 | 115.82268 | 34014 ft | 400 kts | 268° |
| 2026-04-25 08:19 | 42.26785 | 115.74784 | 34016 ft | 401 kts | 268° |
| 2026-04-25 08:19 | 42.26308 | 115.67300 | 34023 ft | 400 kts | 268° |
| 2026-04-25 08:20 | 42.25830 | 115.59786 | 34013 ft | 400 kts | 269° |
| 2026-04-25 08:20 | 42.25345 | 115.52293 | 34006 ft | 400 kts | 269° |
| 2026-04-25 08:21 | 42.24858 | 115.44824 | 34012 ft | 400 kts | 269° |
| 2026-04-25 08:21 | 42.24364 | 115.37351 | 34010 ft | 400 kts | 269° |
| 2026-04-25 08:22 | 42.23862 | 115.29901 | 34011 ft | 400 kts | 268° |
| 2026-04-25 08:22 | 42.23360 | 115.22408 | 34017 ft | 400 kts | 268° |
| 2026-04-25 08:23 | 42.22853 | 115.14965 | 34007 ft | 400 kts | 268° |
| 2026-04-25 08:23 | 42.22338 | 115.07488 | 34007 ft | 400 kts | 268° |
| 2026-04-25 08:24 | 42.21820 | 115.00048 | 34013 ft | 400 kts | 268° |
| 2026-04-25 08:24 | 42.21296 | 114.92601 | 34005 ft | 400 kts | 269° |
| 2026-04-25 08:25 | 42.20763 | 114.85133 | 34007 ft | 400 kts | 269° |
| 2026-04-25 08:25 | 42.20231 | 114.77714 | 34008 ft | 400 kts | 269° |
| 2026-04-25 08:26 | 42.19693 | 114.70285 | 34016 ft | 399 kts | 269° |
| 2026-04-25 08:26 | 42.19152 | 114.62853 | 34020 ft | 399 kts | 269° |
| 2026-04-25 08:27 | 42.18605 | 114.55469 | 34031 ft | 398 kts | 269° |
| 2026-04-25 08:27 | 42.18056 | 114.48058 | 34033 ft | 398 kts | 269° |
| 2026-04-25 08:28 | 42.17504 | 114.40700 | 34030 ft | 397 kts | 269° |
| 2026-04-25 08:28 | 42.16942 | 114.33265 | 34038 ft | 396 kts | 268° |
| 2026-04-25 08:29 | 42.16379 | 114.25888 | 34037 ft | 397 kts | 268° |
| 2026-04-25 08:29 | 42.15812 | 114.18524 | 34031 ft | 397 kts | 269° |
| 2026-04-25 08:30 | 42.15236 | 114.11128 | 34031 ft | 397 kts | 269° |
| 2026-04-25 08:30 | 42.14661 | 114.03764 | 34044 ft | 396 kts | 268° |
| 2026-04-25 08:31 | 42.14071 | 113.96355 | 34036 ft | 397 kts | 268° |
| 2026-04-25 08:31 | 42.13480 | 113.88988 | 34038 ft | 396 kts | 269° |
| 2026-04-25 08:32 | 42.12885 | 113.81615 | 34044 ft | 396 kts | 269° |
| 2026-04-25 08:32 | 42.12293 | 113.74295 | 34050 ft | 396 kts | 269° |
| 2026-04-25 08:33 | 42.11685 | 113.66897 | 34043 ft | 395 kts | 269° |
| 2026-04-25 08:33 | 42.10942 | 113.59597 | 34033 ft | 397 kts | 263° |
| 2026-04-25 08:34 | 42.09251 | 113.52465 | 34026 ft | 405 kts | 254° |
| 2026-04-25 08:34 | 42.06495 | 113.45713 | 34037 ft | 416 kts | 244° |
| 2026-04-25 08:35 | 42.02705 | 113.39657 | 34045 ft | 429 kts | 234° |
| 2026-04-25 08:35 | 41.98430 | 113.33949 | 34041 ft | 430 kts | 233° |
| 2026-04-25 08:36 | 41.94144 | 113.28282 | 34052 ft | 431 kts | 233° |
| 2026-04-25 08:36 | 41.89874 | 113.22639 | 34059 ft | 430 kts | 233° |
| 2026-04-25 08:37 | 41.85612 | 113.17020 | 34066 ft | 432 kts | 233° |
| 2026-04-25 08:37 | 41.81127 | 113.11574 | 34064 ft | 436 kts | 230° |
| 2026-04-25 08:38 | 41.76544 | 113.06213 | 34059 ft | 438 kts | 230° |
| 2026-04-25 08:38 | 41.71880 | 113.00921 | 34060 ft | 439 kts | 230° |
| 2026-04-25 08:39 | 41.67204 | 112.95661 | 34062 ft | 438 kts | 230° |
| 2026-04-25 08:39 | 41.62537 | 112.90417 | 34063 ft | 438 kts | 230° |
| 2026-04-25 08:40 | 41.57879 | 112.85183 | 34077 ft | 440 kts | 230° |
| 2026-04-25 08:40 | 41.53190 | 112.79928 | 34070 ft | 439 kts | 230° |
| 2026-04-25 08:41 | 41.48513 | 112.74696 | 34080 ft | 440 kts | 231° |
| 2026-04-25 08:41 | 41.43863 | 112.69449 | 34086 ft | 438 kts | 232° |
| 2026-04-25 08:42 | 41.39278 | 112.64132 | 34092 ft | 438 kts | 232° |
| 2026-04-25 08:42 | 41.34678 | 112.58806 | 34102 ft | 439 kts | 232° |
| 2026-04-25 08:43 | 41.30041 | 112.53462 | 34104 ft | 439 kts | 232° |
| 2026-04-25 08:43 | 41.25443 | 112.48175 | 34108 ft | 439 kts | 232° |
| 2026-04-25 08:44 | 41.20829 | 112.42884 | 34110 ft | 438 kts | 232° |
| 2026-04-25 08:44 | 41.16179 | 112.37560 | 34113 ft | 440 kts | 232° |
| 2026-04-25 08:45 | 41.11551 | 112.32274 | 34113 ft | 441 kts | 232° |
| 2026-04-25 08:45 | 41.06928 | 112.27007 | 34107 ft | 440 kts | 232° |
| 2026-04-25 08:46 | 41.02196 | 112.21803 | 34104 ft | 444 kts | 230° |
| 2026-04-25 08:46 | 40.97389 | 112.16654 | 34098 ft | 444 kts | 230° |
| 2026-04-25 08:47 | 40.92601 | 112.11512 | 34091 ft | 444 kts | 230° |
| 2026-04-25 08:47 | 40.87824 | 112.06384 | 34083 ft | 445 kts | 230° |
| 2026-04-25 08:48 | 40.83017 | 112.01234 | 34073 ft | 446 kts | 230° |
| 2026-04-25 08:48 | 40.78106 | 111.96183 | 34064 ft | 453 kts | 225° |
| 2026-04-25 08:49 | 40.72471 | 111.92145 | 34052 ft | 471 kts | 213° |
| 2026-04-25 08:49 | 40.66059 | 111.89570 | 34054 ft | 489 kts | 200° |
| 2026-04-25 08:50 | 40.59205 | 111.88612 | 34060 ft | 498 kts | 192° |
| 2026-04-25 08:50 | 40.52314 | 111.88139 | 34065 ft | 497 kts | 191° |
| 2026-04-25 08:51 | 40.45377 | 111.87605 | 34073 ft | 498 kts | 192° |
| 2026-04-25 08:51 | 40.38493 | 111.87027 | 34079 ft | 499 kts | 192° |
| 2026-04-25 08:52 | 40.31564 | 111.86457 | 34082 ft | 497 kts | 192° |
| 2026-04-25 08:52 | 40.24644 | 111.85894 | 34079 ft | 496 kts | 191° |
| 2026-04-25 08:53 | 40.17744 | 111.85335 | 34084 ft | 496 kts | 192° |
| 2026-04-25 08:53 | 40.10863 | 111.84782 | 34093 ft | 495 kts | 191° |
| 2026-04-25 08:54 | 40.04093 | 111.83747 | 34107 ft | 484 kts | 201° |
| 2026-04-25 08:54 | 39.97817 | 111.80984 | 34123 ft | 470 kts | 214° |
| 2026-04-25 08:55 | 39.92318 | 111.76694 | 34129 ft | 451 kts | 227° |
| 2026-04-25 08:55 | 39.87516 | 111.71545 | 34133 ft | 448 kts | 230° |
| 2026-04-25 08:56 | 39.82744 | 111.66325 | 34124 ft | 447 kts | 230° |
| 2026-04-25 08:56 | 39.77974 | 111.61146 | 34124 ft | 447 kts | 229° |
| 2026-04-25 08:57 | 39.73192 | 111.55984 | 34125 ft | 447 kts | 229° |
| 2026-04-25 08:57 | 39.68441 | 111.50871 | 34114 ft | 445 kts | 229° |
| 2026-04-25 08:58 | 39.63661 | 111.45736 | 34103 ft | 447 kts | 229° |
| 2026-04-25 08:58 | 39.58884 | 111.40616 | 34102 ft | 446 kts | 229° |
| 2026-04-25 08:59 | 39.54110 | 111.35515 | 34096 ft | 445 kts | 229° |
| 2026-04-25 08:59 | 39.49336 | 111.30419 | 34089 ft | 444 kts | 228° |
| 2026-04-25 09:00 | 39.44565 | 111.25335 | 34090 ft | 446 kts | 228° |
| 2026-04-25 09:00 | 39.39782 | 111.20247 | 34080 ft | 444 kts | 228° |
| 2026-04-25 09:01 | 39.34990 | 111.15160 | 34068 ft | 445 kts | 228° |
| 2026-04-25 09:01 | 39.30226 | 111.10113 | 34055 ft | 447 kts | 228° |
| 2026-04-25 09:02 | 39.25435 | 111.05046 | 34044 ft | 445 kts | 228° |
| 2026-04-25 09:02 | 39.21113 | 110.99557 | 34037 ft | 430 kts | 241° |
| 2026-04-25 09:03 | 39.18178 | 110.93043 | 34046 ft | 413 kts | 255° |
| 2026-04-25 09:03 | 39.16685 | 110.86043 | 34058 ft | 401 kts | 269° |
| 2026-04-25 09:04 | 39.16541 | 110.78983 | 34074 ft | 393 kts | 278° |
| 2026-04-25 09:04 | 39.16864 | 110.71962 | 34077 ft | 392 kts | 278° |
| 2026-04-25 09:05 | 39.17195 | 110.64950 | 34087 ft | 393 kts | 278° |
| 2026-04-25 09:05 | 39.17520 | 110.57944 | 34086 ft | 394 kts | 278° |
| 2026-04-25 09:06 | 39.17844 | 110.50929 | 34088 ft | 394 kts | 278° |
| 2026-04-25 09:06 | 39.18162 | 110.43882 | 34090 ft | 393 kts | 278° |
| 2026-04-25 09:07 | 39.18476 | 110.36852 | 34087 ft | 394 kts | 278° |
| 2026-04-25 09:07 | 39.18783 | 110.29837 | 34082 ft | 396 kts | 278° |
| 2026-04-25 09:08 | 39.19090 | 110.22743 | 34074 ft | 396 kts | 278° |
| 2026-04-25 09:08 | 39.19395 | 110.15647 | 34064 ft | 396 kts | 278° |
| 2026-04-25 09:09 | 39.19739 | 110.08617 | 34073 ft | 397 kts | 278° |
| 2026-04-25 09:09 | 39.20087 | 110.01516 | 34079 ft | 396 kts | 278° |
| 2026-04-25 09:10 | 39.20425 | 109.94442 | 34080 ft | 396 kts | 278° |
| 2026-04-25 09:10 | 39.20754 | 109.87393 | 34082 ft | 396 kts | 278° |
| 2026-04-25 09:11 | 39.21240 | 109.76798 | 34084 ft | 396 kts | 278° |
| 2026-04-25 09:11 | 39.21559 | 109.69706 | 34091 ft | 395 kts | 278° |
| 2026-04-25 09:12 | 39.21662 | 109.62641 | 34084 ft | 402 kts | 269° |
| 2026-04-25 09:12 | 39.21020 | 109.59073 | 34095 ft | 413 kts | 258° |
| 2026-04-25 09:12 | 39.19822 | 109.55701 | 34099 ft | 425 kts | 247° |
| 2026-04-25 09:13 | 39.18053 | 109.52599 | 34102 ft | 437 kts | 236° |
| 2026-04-25 09:13 | 39.15725 | 109.49941 | 34104 ft | 452 kts | 223° |
| 2026-04-25 09:13 | 39.12930 | 109.47949 | 34107 ft | 467 kts | 211° |
| 2026-04-25 09:13 | 39.09779 | 109.46757 | 34115 ft | 480 kts | 200° |
| 2026-04-25 09:14 | 39.03216 | 109.45152 | 34107 ft | 483 kts | 198° |
| 2026-04-25 09:14 | 38.96589 | 109.43578 | 34108 ft | 482 kts | 198° |
| 2026-04-25 09:15 | 38.90002 | 109.41965 | 34104 ft | 481 kts | 198° |
| 2026-04-25 09:15 | 38.83450 | 109.40335 | 34106 ft | 481 kts | 199° |
| 2026-04-25 09:16 | 38.76833 | 109.38689 | 34108 ft | 482 kts | 199° |
| 2026-04-25 09:16 | 38.70287 | 109.37068 | 34100 ft | 483 kts | 198° |
| 2026-04-25 09:17 | 38.60368 | 109.34628 | 34103 ft | 482 kts | 198° |
| 2026-04-25 09:18 | 38.53781 | 109.33014 | 34098 ft | 484 kts | 198° |
| 2026-04-25 09:18 | 38.47160 | 109.31398 | 34100 ft | 485 kts | 198° |
| 2026-04-25 09:19 | 38.40537 | 109.29826 | 34092 ft | 486 kts | 195° |
| 2026-04-25 09:19 | 38.33756 | 109.28964 | 34085 ft | 493 kts | 188° |
| 2026-04-25 09:20 | 38.26895 | 109.28555 | 34073 ft | 494 kts | 188° |
| 2026-04-25 09:20 | 38.20042 | 109.28152 | 34067 ft | 494 kts | 188° |
| 2026-04-25 09:21 | 38.13161 | 109.27734 | 34057 ft | 494 kts | 188° |
| 2026-04-25 09:21 | 38.06290 | 109.27313 | 34062 ft | 494 kts | 189° |
| 2026-04-25 09:22 | 37.99437 | 109.26888 | 34056 ft | 494 kts | 188° |
| 2026-04-25 09:22 | 37.92564 | 109.26470 | 34052 ft | 493 kts | 188° |
| 2026-04-25 09:23 | 37.85668 | 109.26047 | 34063 ft | 494 kts | 188° |
| 2026-04-25 09:23 | 37.78843 | 109.25636 | 34068 ft | 494 kts | 188° |
| 2026-04-25 09:24 | 37.71962 | 109.25223 | 34080 ft | 495 kts | 187° |
| 2026-04-25 09:24 | 37.65055 | 109.24810 | 34086 ft | 496 kts | 188° |
| 2026-04-25 09:25 | 37.58154 | 109.24396 | 34097 ft | 496 kts | 188° |
| 2026-04-25 09:25 | 37.51263 | 109.23985 | 34107 ft | 496 kts | 187° |
| 2026-04-25 09:26 | 37.44370 | 109.23580 | 34105 ft | 495 kts | 187° |
| 2026-04-25 09:26 | 37.37467 | 109.23170 | 34111 ft | 496 kts | 187° |
| 2026-04-25 09:27 | 37.30580 | 109.22760 | 34106 ft | 495 kts | 187° |
| 2026-04-25 09:27 | 37.23667 | 109.22349 | 34117 ft | 495 kts | 187° |
| 2026-04-25 09:28 | 37.16906 | 109.21949 | 34119 ft | 497 kts | 187° |
| 2026-04-25 09:28 | 37.10016 | 109.21542 | 34110 ft | 497 kts | 187° |
| 2026-04-25 09:29 | 37.03113 | 109.21137 | 34113 ft | 496 kts | 187° |
| 2026-04-25 09:29 | 36.96205 | 109.20729 | 34114 ft | 497 kts | 187° |
| 2026-04-25 09:30 | 36.89285 | 109.20327 | 34109 ft | 498 kts | 187° |
| 2026-04-25 09:30 | 36.82485 | 109.19937 | 34109 ft | 498 kts | 187° |
| 2026-04-25 09:31 | 36.75589 | 109.19554 | 34104 ft | 499 kts | 187° |
| 2026-04-25 09:31 | 36.68650 | 109.19177 | 34104 ft | 498 kts | 186° |
| 2026-04-25 09:32 | 36.61759 | 109.18807 | 34110 ft | 497 kts | 186° |
| 2026-04-25 09:32 | 36.54819 | 109.18433 | 34119 ft | 498 kts | 187° |
| 2026-04-25 09:33 | 36.47883 | 109.18057 | 34126 ft | 499 kts | 186° |
| 2026-04-25 09:33 | 36.40934 | 109.17689 | 34128 ft | 498 kts | 186° |
| 2026-04-25 09:34 | 36.33991 | 109.17232 | 34123 ft | 498 kts | 188° |
| 2026-04-25 09:34 | 36.26977 | 109.16687 | 34120 ft | 498 kts | 187° |
| 2026-04-25 09:35 | 36.20094 | 109.16236 | 34115 ft | 498 kts | 187° |
| 2026-04-25 09:35 | 36.13169 | 109.15793 | 34111 ft | 498 kts | 187° |
| 2026-04-25 09:36 | 36.06237 | 109.15347 | 34106 ft | 499 kts | 187° |
| 2026-04-25 09:36 | 35.99327 | 109.14907 | 34097 ft | 497 kts | 187° |
| 2026-04-25 09:37 | 35.92391 | 109.14454 | 34089 ft | 498 kts | 188° |
| 2026-04-25 09:37 | 35.85565 | 109.13433 | 34084 ft | 493 kts | 195° |
| 2026-04-25 09:38 | 35.78905 | 109.11410 | 34085 ft | 489 kts | 202° |
| 2026-04-25 09:38 | 35.72519 | 109.08627 | 34089 ft | 487 kts | 205° |
| 2026-04-25 09:39 | 35.66143 | 109.05759 | 34086 ft | 487 kts | 205° |
| 2026-04-25 09:39 | 35.59777 | 109.02921 | 34091 ft | 488 kts | 205° |
| 2026-04-25 09:40 | 35.50183 | 108.98668 | 34087 ft | 488 kts | 205° |
| 2026-04-25 09:40 | 35.43810 | 108.95853 | 34090 ft | 487 kts | 205° |
| 2026-04-25 09:41 | 35.37436 | 108.93041 | 34096 ft | 488 kts | 205° |
| 2026-04-25 09:41 | 35.31044 | 108.90226 | 34109 ft | 488 kts | 205° |
| 2026-04-25 09:42 | 35.24647 | 108.87415 | 34112 ft | 489 kts | 206° |
| 2026-04-25 09:42 | 35.18291 | 108.84624 | 34106 ft | 489 kts | 206° |
| 2026-04-25 09:43 | 35.11896 | 108.81824 | 34095 ft | 488 kts | 206° |
| 2026-04-25 09:43 | 35.05462 | 108.79008 | 34089 ft | 489 kts | 206° |
| 2026-04-25 09:44 | 34.99091 | 108.76221 | 34083 ft | 489 kts | 206° |
| 2026-04-25 09:44 | 34.92670 | 108.73422 | 34080 ft | 488 kts | 205° |
| 2026-04-25 09:45 | 34.86269 | 108.70637 | 34075 ft | 489 kts | 205° |
| 2026-04-25 09:45 | 34.79889 | 108.67866 | 34069 ft | 489 kts | 206° |
| 2026-04-25 09:46 | 34.74526 | 108.65542 | 34061 ft | 489 kts | 206° |
| 2026-04-25 09:46 | 34.67081 | 108.62318 | 34038 ft | 488 kts | 206° |
| 2026-04-25 09:47 | 34.60663 | 108.59544 | 34029 ft | 488 kts | 205° |
| 2026-04-25 09:47 | 34.54292 | 108.56800 | 34016 ft | 488 kts | 205° |
| 2026-04-25 09:48 | 34.47878 | 108.54034 | 34004 ft | 488 kts | 205° |
| 2026-04-25 09:48 | 34.41483 | 108.51274 | 33999 ft | 488 kts | 205° |
| 2026-04-25 09:49 | 34.35064 | 108.48515 | 34002 ft | 488 kts | 205° |
| 2026-04-25 09:49 | 34.28677 | 108.45778 | 34004 ft | 488 kts | 205° |
| 2026-04-25 09:50 | 34.22261 | 108.43028 | 34007 ft | 488 kts | 205° |
| 2026-04-25 09:50 | 34.15862 | 108.40296 | 34045 ft | 488 kts | 205° |
| 2026-04-25 09:51 | 34.09432 | 108.37552 | 34096 ft | 489 kts | 205° |
| 2026-04-25 09:51 | 34.03038 | 108.34828 | 34141 ft | 488 kts | 205° |
| 2026-04-25 09:52 | 33.96595 | 108.32089 | 34173 ft | 488 kts | 205° |
| 2026-04-25 09:52 | 33.90161 | 108.29357 | 34200 ft | 488 kts | 205° |
| 2026-04-25 09:53 | 33.83731 | 108.26633 | 34221 ft | 488 kts | 205° |
| 2026-04-25 09:53 | 33.77296 | 108.23912 | 34238 ft | 488 kts | 205° |
| 2026-04-25 09:54 | 33.70912 | 108.21214 | 34237 ft | 489 kts | 205° |
| 2026-04-25 09:54 | 33.64474 | 108.18496 | 34209 ft | 488 kts | 205° |
| 2026-04-25 09:55 | 33.58064 | 108.15794 | 34175 ft | 489 kts | 204° |
| 2026-04-25 09:55 | 33.51659 | 108.13103 | 34141 ft | 489 kts | 204° |
| 2026-04-25 09:56 | 33.45220 | 108.10402 | 34114 ft | 488 kts | 204° |
| 2026-04-25 09:56 | 33.38764 | 108.07840 | 34109 ft | 491 kts | 202° |
| 2026-04-25 09:57 | 33.32190 | 108.05483 | 34105 ft | 490 kts | 201° |
| 2026-04-25 09:57 | 33.25656 | 108.03152 | 34103 ft | 491 kts | 201° |
| 2026-04-25 09:58 | 33.19101 | 108.00817 | 34105 ft | 490 kts | 202° |
| 2026-04-25 09:58 | 33.12536 | 107.98478 | 34109 ft | 491 kts | 201° |
| 2026-04-25 09:59 | 33.05986 | 107.96150 | 34117 ft | 492 kts | 202° |
| 2026-04-25 09:59 | 32.99433 | 107.93823 | 34114 ft | 492 kts | 201° |
| 2026-04-25 10:00 | 32.92871 | 107.91499 | 34113 ft | 491 kts | 201° |
| 2026-04-25 10:00 | 32.86299 | 107.89172 | 34104 ft | 491 kts | 201° |
| 2026-04-25 10:01 | 32.79750 | 107.86858 | 34102 ft | 491 kts | 202° |
| 2026-04-25 10:01 | 32.73170 | 107.84538 | 34106 ft | 491 kts | 201° |
| 2026-04-25 10:02 | 32.66595 | 107.82222 | 34126 ft | 492 kts | 201° |
| 2026-04-25 10:02 | 32.60035 | 107.79916 | 34128 ft | 491 kts | 201° |
| 2026-04-25 10:03 | 32.53473 | 107.77612 | 34124 ft | 491 kts | 201° |
| 2026-04-25 10:03 | 32.46930 | 107.75319 | 34123 ft | 491 kts | 202° |
| 2026-04-25 10:04 | 32.40374 | 107.73024 | 34109 ft | 490 kts | 201° |
| 2026-04-25 10:04 | 32.33810 | 107.70734 | 34102 ft | 490 kts | 202° |
| 2026-04-25 10:05 | 32.27280 | 107.68429 | 34096 ft | 488 kts | 203° |
| 2026-04-25 10:05 | 32.20995 | 107.65537 | 34100 ft | 483 kts | 211° |
| 2026-04-25 10:06 | 32.15085 | 107.61785 | 34114 ft | 477 kts | 218° |
| 2026-04-25 10:06 | 32.09701 | 107.57340 | 34125 ft | 471 kts | 224° |
| 2026-04-25 10:07 | 32.04464 | 107.52668 | 34114 ft | 471 kts | 224° |
| 2026-04-25 10:07 | 31.99271 | 107.48059 | 34093 ft | 470 kts | 224° |
| 2026-04-25 10:08 | 31.94024 | 107.43424 | 34083 ft | 470 kts | 224° |
| 2026-04-25 10:08 | 31.88788 | 107.38811 | 34080 ft | 469 kts | 224° |
| 2026-04-25 10:09 | 31.83519 | 107.34175 | 34073 ft | 470 kts | 222° |
| 2026-04-25 10:09 | 31.78025 | 107.29948 | 34055 ft | 476 kts | 216° |
| 2026-04-25 10:10 | 31.72072 | 107.26448 | 34039 ft | 481 kts | 210° |
| 2026-04-25 10:10 | 31.65935 | 107.23289 | 34035 ft | 481 kts | 209° |
| 2026-04-25 10:11 | 31.59820 | 107.20151 | 34044 ft | 480 kts | 210° |
| 2026-04-25 10:11 | 31.53703 | 107.17004 | 34054 ft | 479 kts | 210° |
| 2026-04-25 10:12 | 31.47573 | 107.13850 | 34062 ft | 480 kts | 210° |
| 2026-04-25 10:13 | 31.38377 | 107.09124 | 34056 ft | 480 kts | 210° |
| 2026-04-25 10:13 | 31.32274 | 107.05995 | 34048 ft | 478 kts | 210° |
| 2026-04-25 10:14 | 31.26177 | 107.02872 | 34047 ft | 478 kts | 210° |
| 2026-04-25 10:14 | 31.20084 | 106.99756 | 34049 ft | 477 kts | 210° |
| 2026-04-25 10:15 | 31.14016 | 106.96656 | 34047 ft | 479 kts | 210° |
| 2026-04-25 10:15 | 31.07912 | 106.93545 | 33954 ft | 479 kts | 210° |
| 2026-04-25 10:15 | 31.04855 | 106.91988 | 33668 ft | 478 kts | 210° |
| 2026-04-25 10:16 | 31.01775 | 106.90418 | 33394 ft | 475 kts | 210° |
| 2026-04-25 10:16 | 30.98739 | 106.88878 | 33119 ft | 472 kts | 210° |
| 2026-04-25 10:16 | 30.95769 | 106.87369 | 32855 ft | 470 kts | 210° |
| 2026-04-25 10:16 | 30.92672 | 106.85796 | 32573 ft | 471 kts | 210° |
| 2026-04-25 10:17 | 30.89668 | 106.84269 | 32306 ft | 471 kts | 210° |
| 2026-04-25 10:17 | 30.86658 | 106.82742 | 32024 ft | 472 kts | 210° |
| 2026-04-25 10:17 | 30.83588 | 106.81186 | 31754 ft | 473 kts | 210° |
| 2026-04-25 10:17 | 30.80555 | 106.79649 | 31480 ft | 474 kts | 210° |
| 2026-04-25 10:18 | 30.77499 | 106.78102 | 31209 ft | 475 kts | 209° |
| 2026-04-25 10:18 | 30.74470 | 106.76571 | 30799 ft | 476 kts | 209° |
| 2026-04-25 10:18 | 30.71446 | 106.75046 | 30244 ft | 476 kts | 209° |
| 2026-04-25 10:18 | 30.68406 | 106.73510 | 29573 ft | 477 kts | 209° |
| 2026-04-25 10:19 | 30.65321 | 106.71954 | 28812 ft | 478 kts | 208° |
| 2026-04-25 10:19 | 30.62179 | 106.70652 | 28047 ft | 485 kts | 199° |
| 2026-04-25 10:19 | 30.58806 | 106.69984 | 27282 ft | 491 kts | 188° |
| 2026-04-25 10:19 | 30.55393 | 106.69998 | 26512 ft | 495 kts | 179° |
| 2026-04-25 10:20 | 30.51915 | 106.70328 | 25850 ft | 493 kts | 177° |
| 2026-04-25 10:20 | 30.48513 | 106.70712 | 25356 ft | 487 kts | 177° |
| 2026-04-25 10:20 | 30.45116 | 106.71090 | 24836 ft | 483 kts | 177° |
| 2026-04-25 10:20 | 30.41785 | 106.71430 | 24310 ft | 478 kts | 177° |
| 2026-04-25 10:21 | 30.38421 | 106.71754 | 23772 ft | 473 kts | 177° |
| 2026-04-25 10:21 | 30.35110 | 106.71977 | 23233 ft | 468 kts | 182° |
| 2026-04-25 10:21 | 30.31914 | 106.71726 | 22720 ft | 461 kts | 190° |
| 2026-04-25 10:21 | 30.28758 | 106.70966 | 22202 ft | 453 kts | 198° |
| 2026-04-25 10:22 | 30.25723 | 106.69935 | 21684 ft | 449 kts | 200° |
| 2026-04-25 10:22 | 30.23751 | 106.69229 | 21344 ft | 446 kts | 200° |
| 2026-04-25 10:22 | 30.19800 | 106.67807 | 20666 ft | 441 kts | 200° |
| 2026-04-25 10:22 | 30.16861 | 106.66763 | 20161 ft | 436 kts | 199° |
| 2026-04-25 10:23 | 30.13967 | 106.65749 | 19656 ft | 433 kts | 199° |
| 2026-04-25 10:23 | 30.11058 | 106.64736 | 19050 ft | 432 kts | 199° |
| 2026-04-25 10:23 | 30.08173 | 106.63734 | 18452 ft | 429 kts | 199° |
| 2026-04-25 10:23 | 30.05328 | 106.62748 | 17842 ft | 425 kts | 198° |
| 2026-04-25 10:24 | 30.02491 | 106.61760 | 17229 ft | 423 kts | 198° |
| 2026-04-25 10:24 | 29.99705 | 106.60792 | 16661 ft | 409 kts | 198° |
| 2026-04-25 10:24 | 29.97007 | 106.59857 | 16161 ft | 389 kts | 198° |
| 2026-04-25 10:24 | 29.94468 | 106.58980 | 15662 ft | 370 kts | 198° |
| 2026-04-25 10:25 | 29.92078 | 106.58154 | 15160 ft | 354 kts | 198° |
| 2026-04-25 10:25 | 29.89742 | 106.57346 | 14665 ft | 344 kts | 199° |
| 2026-04-25 10:25 | 29.87466 | 106.56561 | 14158 ft | 332 kts | 198° |
| 2026-04-25 10:25 | 29.85294 | 106.55810 | 13675 ft | 319 kts | 199° |
| 2026-04-25 10:26 | 29.83198 | 106.55086 | 13192 ft | 310 kts | 199° |
| 2026-04-25 10:26 | 29.81114 | 106.54363 | 12682 ft | 306 kts | 198° |
| 2026-04-25 10:26 | 29.79098 | 106.53666 | 12202 ft | 302 kts | 198° |
| 2026-04-25 10:26 | 29.77079 | 106.52970 | 11723 ft | 300 kts | 197° |
| 2026-04-25 10:27 | 29.75085 | 106.52283 | 11249 ft | 300 kts | 197° |
| 2026-04-25 10:27 | 29.73082 | 106.51593 | 10774 ft | 301 kts | 197° |
| 2026-04-25 10:27 | 29.71030 | 106.50887 | 10287 ft | 301 kts | 196° |
| 2026-04-25 10:27 | 29.69009 | 106.50193 | 9805 ft | 302 kts | 196° |
| 2026-04-25 10:28 | 29.66985 | 106.49496 | 9328 ft | 302 kts | 196° |
| 2026-04-25 10:28 | 29.64973 | 106.48804 | 8853 ft | 302 kts | 196° |
| 2026-04-25 10:28 | 29.62945 | 106.48104 | 8376 ft | 303 kts | 196° |
| 2026-04-25 10:28 | 29.60940 | 106.47412 | 7909 ft | 304 kts | 195° |
| 2026-04-25 10:29 | 29.58892 | 106.46708 | 7437 ft | 304 kts | 195° |
| 2026-04-25 10:29 | 29.56853 | 106.46008 | 6962 ft | 304 kts | 195° |
| 2026-04-25 10:29 | 29.54840 | 106.45318 | 6566 ft | 301 kts | 195° |
| 2026-04-25 10:29 | 29.52818 | 106.44627 | 6209 ft | 297 kts | 194° |
| 2026-04-25 10:30 | 29.50801 | 106.44331 | 5833 ft | 291 kts | 173° |
| 2026-04-25 10:30 | 29.49501 | 106.44688 | 5593 ft | 286 kts | 157° |
| 2026-04-25 10:30 | 29.47517 | 106.46604 | 5207 ft | 277 kts | 121° |
| 2026-04-25 10:30 | 29.46770 | 106.48619 | 4979 ft | 270 kts | 110° |
| 2026-04-25 10:31 | 29.46226 | 106.50642 | 4896 ft | 256 kts | 108° |
| 2026-04-25 10:31 | 29.45746 | 106.52546 | 4888 ft | 239 kts | 107° |
| 2026-04-25 10:31 | 29.45325 | 106.54335 | 4874 ft | 224 kts | 99° |
| 2026-04-25 10:31 | 29.45520 | 106.56046 | 4855 ft | 217 kts | 65° |
| 2026-04-25 10:32 | 29.46509 | 106.57386 | 4989 ft | 221 kts | 43° |
| 2026-04-25 10:32 | 29.47844 | 106.58303 | 4960 ft | 224 kts | 27° |
| 2026-04-25 10:32 | 29.49313 | 106.58913 | 4933 ft | 224 kts | 20° |
| 2026-04-25 10:32 | 29.50817 | 106.59416 | 4919 ft | 224 kts | 18° |
| 2026-04-25 10:33 | 29.52301 | 106.59901 | 4897 ft | 213 kts | 19° |
| 2026-04-25 10:33 | 29.53237 | 106.60210 | 4857 ft | 203 kts | 19° |
| 2026-04-25 10:33 | 29.55054 | 106.60832 | 4664 ft | 202 kts | 19° |
| 2026-04-25 10:33 | 29.56386 | 106.61295 | 4398 ft | 200 kts | 19° |
| 2026-04-25 10:34 | 29.57717 | 106.61759 | 4129 ft | 194 kts | 20° |
| 2026-04-25 10:34 | 29.58993 | 106.62206 | 3869 ft | 186 kts | 19° |
| 2026-04-25 10:34 | 29.60207 | 106.62633 | 3626 ft | 178 kts | 20° |
| 2026-04-25 10:34 | 29.61351 | 106.63035 | 3406 ft | 172 kts | 20° |
| 2026-04-25 10:35 | 29.62505 | 106.63440 | 3209 ft | 171 kts | 20° |
| 2026-04-25 10:35 | 29.63641 | 106.63837 | 3010 ft | 170 kts | 19° |
| 2026-04-25 10:35 | 29.64772 | 106.64230 | 2801 ft | 162 kts | 20° |
| 2026-04-25 10:35 | 29.65802 | 106.64588 | 2579 ft | 149 kts | 20° |
| 2026-04-25 10:36 | 29.66782 | 106.64932 | 2400 ft | 149 kts | 20° |
| 2026-04-25 10:36 | 29.67791 | 106.65283 | 2224 ft | 149 kts | 20° |
| 2026-04-25 10:36 | 29.68779 | 106.65627 | 2038 ft | 148 kts | 20° |
| 2026-04-25 10:36 | 29.69763 | 106.65974 | 1848 ft | 148 kts | 19° |
| 2026-04-25 10:37 | 29.70756 | 106.66328 | 1663 ft | 146 kts | 19° |
| 2026-04-25 10:37 | 29.71728 | 106.66648 | 1480 ft | 146 kts | 19° |
| 2026-04-25 10:37 | 29.72701 | 106.66997 | 1378 ft | 134 kts | 19° |
| 2026-04-25 10:37 | 29.73432 | 106.67251 | 1378 ft | 83 kts | 16° |
| 2026-04-25 10:38 | 29.73828 | 106.67382 | 1378 ft | 33 kts | 7° |
| 2026-04-25 10:38 | 29.73978 | 106.67378 | 1379 ft | 18 kts | 352° |
| 2026-04-25 10:38 | 29.74105 | 106.67348 | 1379 ft | 17 kts | 349° |
| 2026-04-25 10:38 | 29.74228 | 106.67328 | 1379 ft | 17 kts | 0° |
| 2026-04-25 10:39 | 29.74346 | 106.67360 | 1379 ft | 17 kts | 17° |
| 2026-04-25 10:39 | 29.74460 | 106.67399 | 1379 ft | 16 kts | 15° |
| 2026-04-25 10:39 | 29.74571 | 106.67437 | 1379 ft | 16 kts | 17° |
| 2026-04-25 10:39 | 29.74666 | 106.67412 | 1379 ft | 15 kts | 291° |
| 2026-04-25 10:40 | 29.74699 | 106.67293 | 1379 ft | 15 kts | 286° |
| 2026-04-25 10:40 | 29.74731 | 106.67170 | 1379 ft | 15 kts | 286° |
| 2026-04-25 10:40 | 29.74762 | 106.67050 | 1379 ft | 15 kts | 287° |
| 2026-04-25 10:40 | 29.74742 | 106.66982 | 1379 ft | 14 kts | 211° |
| 2026-04-25 10:41 | 29.74612 | 106.66935 | 1379 ft | 14 kts | 197° |
| 2026-04-25 10:41 | 29.74509 | 106.66900 | 1378 ft | 16 kts | 197° |
| 2026-04-25 10:41 | 29.74391 | 106.66859 | 1378 ft | 17 kts | 197° |
| 2026-04-25 10:41 | 29.74274 | 106.66818 | 1378 ft | 17 kts | 197° |
| 2026-04-25 10:42 | 29.74158 | 106.66778 | 1378 ft | 17 kts | 197° |
| 2026-04-25 10:42 | 29.74035 | 106.66736 | 1378 ft | 18 kts | 197° |
| 2026-04-25 10:42 | 29.73913 | 106.66692 | 1378 ft | 18 kts | 197° |
| 2026-04-25 10:42 | 29.73791 | 106.66651 | 1377 ft | 18 kts | 197° |
| 2026-04-25 10:43 | 29.73664 | 106.66607 | 1377 ft | 18 kts | 197° |
| 2026-04-25 10:43 | 29.73538 | 106.66563 | 1377 ft | 18 kts | 197° |
| 2026-04-25 10:43 | 29.73412 | 106.66520 | 1377 ft | 18 kts | 197° |
| 2026-04-25 10:43 | 29.73286 | 106.66476 | 1377 ft | 19 kts | 197° |
| 2026-04-25 10:44 | 29.73150 | 106.66430 | 1377 ft | 20 kts | 197° |
| 2026-04-25 10:44 | 29.73009 | 106.66380 | 1376 ft | 21 kts | 197° |
| 2026-04-25 10:44 | 29.72867 | 106.66331 | 1376 ft | 20 kts | 197° |
| 2026-04-25 10:44 | 29.72731 | 106.66285 | 1376 ft | 19 kts | 197° |
| 2026-04-25 10:45 | 29.72600 | 106.66240 | 1376 ft | 19 kts | 196° |
| 2026-04-25 10:45 | 29.72467 | 106.66194 | 1376 ft | 19 kts | 199° |
| 2026-04-25 10:45 | 29.72338 | 106.66149 | 1376 ft | 19 kts | 196° |
| 2026-04-25 10:45 | 29.72211 | 106.66105 | 1375 ft | 18 kts | 197° |
| 2026-04-25 10:46 | 29.72086 | 106.66064 | 1375 ft | 18 kts | 196° |
| 2026-04-25 10:46 | 29.71966 | 106.66020 | 1375 ft | 17 kts | 197° |
| 2026-04-25 10:46 | 29.71919 | 106.65942 | 1375 ft | 13 kts | 281° |
| 2026-04-25 10:46 | 29.71947 | 106.65839 | 1375 ft | 13 kts | 287° |
| 2026-04-25 10:47 | 29.71978 | 106.65720 | 1375 ft | 17 kts | 287° |
| 2026-04-25 10:47 | 29.72016 | 106.65577 | 1375 ft | 19 kts | 287° |
| 2026-04-25 10:47 | 29.72055 | 106.65429 | 1375 ft | 18 kts | 287° |
| 2026-04-25 10:47 | 29.72093 | 106.65284 | 1375 ft | 18 kts | 287° |
| 2026-04-25 10:48 | 29.72130 | 106.65144 | 1374 ft | 18 kts | 287° |
| 2026-04-25 10:48 | 29.72142 | 106.65032 | 1374 ft | 11 kts | 230° |
| 2026-04-25 10:48 | 29.72068 | 106.64996 | 1374 ft | 11 kts | 197° |
| 2026-04-25 10:48 | 29.71986 | 106.64967 | 1374 ft | 12 kts | 197° |
| 2026-04-25 10:49 | 29.71901 | 106.64938 | 1374 ft | 8 kts | 197° |
| 2026-04-25 10:49 | 29.71866 | 106.64945 | 1374 ft | 5 kts | 131° |
| 2026-04-25 10:49 | 29.71853 | 106.64983 | 1374 ft | 3 kts | 107° |
| 2026-04-25 10:49 | 29.71849 | 106.65000 | 1374 ft | 0 kts | 107° |
| 2026-04-25 10:50 | 29.71849 | 106.65001 | 1374 ft | 0 kts | 107° |